createdAt,value
2023-01-18T04:45:14.087Z,11.40
2023-01-18T05:00:19.330Z,11.93
2023-01-18T05:15:23.724Z,10.27
2023-01-18T05:30:28.281Z,9.10
2023-01-18T05:45:32.741Z,10.57
2023-01-18T06:00:37.358Z,10.00
2023-01-18T06:15:43.271Z,8.90
2023-01-18T06:30:48.368Z,9.43
2023-01-18T06:45:56.981Z,9.70
2023-01-18T07:01:02.568Z,10.90
2023-01-18T07:16:08.600Z,12.37
2023-01-18T07:31:13.150Z,12.27
2023-01-18T07:46:20.585Z,10.73
2023-01-18T08:01:25.584Z,10.87
2023-01-18T08:16:30.281Z,11.20
2023-01-18T08:31:34.851Z,12.73
2023-01-18T08:46:39.368Z,16.77
2023-01-18T09:01:43.891Z,13.20
2023-01-18T09:16:48.482Z,11.57
2023-01-18T09:31:54.029Z,14.40
2023-01-18T09:47:03.806Z,11.10
2023-01-18T10:02:19.703Z,13.20
2023-01-18T10:17:29.504Z,12.40
2023-01-18T10:32:38.119Z,6.90
2023-01-18T10:47:45.585Z,7.00
2023-01-18T11:02:52.243Z,7.00
2023-01-18T11:18:11.983Z,5.20
2023-01-18T11:33:19.628Z,6.10
2023-01-18T11:48:30.753Z,6.70
2023-01-18T12:03:50.260Z,4.80
2023-01-18T12:19:24.115Z,5.07
2023-01-18T12:49:43.809Z,3.83
2023-01-18T13:04:55.448Z,2.97
2023-01-18T13:20:07.342Z,6.07
2023-01-18T13:35:22.057Z,2.27
2023-01-18T13:50:47.135Z,2.10
2023-01-18T14:05:52.617Z,1.33
2023-01-18T14:21:24.218Z,1.70
2023-01-18T14:36:30.272Z,3.60
2023-01-18T14:51:34.924Z,2.47
2023-01-18T15:06:42.310Z,2.40
2023-01-18T15:21:46.939Z,5.03
2023-01-18T15:36:52.149Z,2.90
2023-01-18T15:51:57.492Z,2.70
2023-01-18T16:07:26.537Z,2.30
2023-01-18T16:22:35.419Z,2.60
2023-01-18T16:37:41.381Z,2.90
2023-01-18T16:52:45.923Z,1.10
2023-01-18T17:07:50.688Z,2.00
2023-01-18T17:22:55.916Z,2.53
2023-01-18T17:38:06.163Z,1.87
2023-01-18T17:53:16.304Z,1.67
2023-01-18T18:08:21.490Z,3.03
2023-01-18T18:23:27.368Z,2.80
2023-01-18T18:38:31.780Z,3.70
2023-01-18T18:53:39.133Z,2.70
2023-01-18T19:08:44.315Z,3.27
2023-01-18T19:23:49.004Z,3.57
2023-01-18T19:38:59.636Z,3.07
2023-01-18T19:54:05.570Z,2.33
2023-01-18T20:09:19.541Z,20.50
2023-01-18T20:24:25.586Z,2.50
2023-01-18T20:39:30.155Z,2.77
2023-01-18T20:54:35.995Z,1.77
2023-01-18T21:09:40.945Z,2.20
2023-01-18T22:27:37.986Z,2.10
2023-01-18T22:42:42.529Z,1.80
2023-01-18T22:57:46.993Z,2.07
2023-01-18T23:12:52.296Z,2.30
2023-01-18T23:27:59.329Z,2.70
2023-01-18T23:43:21.592Z,2.90
2023-01-18T23:58:26.280Z,3.13
